Time;durP1;ratioP1;P1;durP2;ratioP2;P2;SDS_P1;SDS_P2;PMS_P1;PMS_P2;Temp;Humidity;BMP_temperature;BMP_pressure;BME280_temperature;BME280_humidity;BME280_pressure;Samples;Min_cycle;Max_cycle;Signal;HPM_P1;HPM_P2
2023/06/26 00:01:23;;;;;;;1.90;1.80;;;;;;;21.07;53.95;95502.91;4359462;32;20220;-61
2023/06/26 00:03:50;;;;;;;1.30;1.30;;;;;;;20.98;54.41;95513.13;4344477;32;20189;-61
2023/06/26 00:06:17;;;;;;;1.73;1.73;;;;;;;21.11;54.50;95503.75;4379048;32;20260;-61
2023/06/26 00:08:43;;;;;;;1.07;1.07;;;;;;;21.08;54.41;95504.47;4365173;32;20238;-60
2023/06/26 00:11:09;;;;;;;2.60;2.13;;;;;;;21.13;54.39;95498.78;4371394;32;20243;-61
2023/06/26 00:13:35;;;;;;;1.87;1.77;;;;;;;21.03;54.31;95504.75;4354006;32;20200;-61
2023/06/26 00:16:03;;;;;;;2.27;2.17;;;;;;;21.05;54.14;95499.78;4355565;32;20457;-60
2023/06/26 00:18:29;;;;;;;1.77;1.67;;;;;;;21.01;54.57;95506.22;4369859;32;20251;-61
2023/06/26 00:20:54;;;;;;;2.17;2.07;;;;;;;21.00;55.00;95502.75;4375672;32;20188;-61
2023/06/26 00:23:22;;;;;;;2.10;2.00;;;;;;;21.01;54.82;95504.31;4358502;32;20189;-60
2023/06/26 00:25:49;;;;;;;2.27;2.07;;;;;;;20.97;54.73;95506.19;4364242;32;20185;-61
2023/06/26 00:28:18;;;;;;;1.80;1.70;;;;;;;21.04;55.12;95511.69;4331125;32;20206;-60
2023/06/26 00:30:45;;;;;;;1.50;1.37;;;;;;;20.87;54.74;95512.91;4333613;32;20239;-60
2023/06/26 00:33:11;;;;;;;1.93;1.83;;;;;;;21.04;54.28;95514.41;4390578;32;20206;-60
2023/06/26 00:35:38;;;;;;;1.47;1.47;;;;;;;20.98;53.86;95518.53;4355071;32;20199;-61
2023/06/26 00:38:04;;;;;;;18.00;2.07;;;;;;;20.74;53.80;95506.09;4366354;32;22950;-61
2023/06/26 00:40:31;;;;;;;1.70;1.60;;;;;;;20.66;54.32;95512.47;4373483;32;20188;-61
2023/06/26 00:42:56;;;;;;;1.83;1.73;;;;;;;20.61;54.03;95504.63;4359881;32;20280;-61
2023/06/26 00:45:22;;;;;;;1.83;1.77;;;;;;;20.59;53.67;95518.47;4371002;32;20232;-61
2023/06/26 00:47:48;;;;;;;2.47;1.87;;;;;;;20.68;53.38;95509.41;4382019;32;20203;-61
2023/06/26 00:50:18;;;;;;;2.63;2.43;;;;;;;20.47;53.86;95505.13;4366948;32;20188;-61
2023/06/26 00:52:44;;;;;;;1.13;1.13;;;;;;;20.64;53.55;95503.16;4313211;32;20178;-61
2023/06/26 00:55:13;;;;;;;1.20;1.20;;;;;;;20.65;53.50;95499.31;4353832;32;20184;-61
2023/06/26 00:57:40;;;;;;;2.13;2.03;;;;;;;20.55;53.91;95512.25;4374909;32;20252;-61
2023/06/26 01:00:13;;;;;;;1.83;1.73;;;;;;;20.57;53.92;95509.19;4382989;32;20206;-61
2023/06/26 01:02:41;;;;;;;1.40;1.40;;;;;;;20.68;53.82;95506.72;4381965;32;20199;-61
2023/06/26 01:05:12;;;;;;;1.43;1.33;;;;;;;20.61;53.77;95514.63;4384710;32;20177;-61
2023/06/26 01:07:40;;;;;;;1.40;1.40;;;;;;;20.49;54.50;95507.47;4371973;32;20203;-61
2023/06/26 01:10:06;;;;;;;1.67;1.57;;;;;;;20.63;54.02;95504.28;4357647;32;20281;-61
2023/06/26 01:12:34;;;;;;;2.10;2.00;;;;;;;20.38;53.92;95509.91;4356253;32;20177;-61
2023/06/26 01:15:01;;;;;;;1.47;1.47;;;;;;;20.47;54.97;95507.03;4359172;32;20188;-61
2023/06/26 01:17:32;;;;;;;1.97;1.87;;;;;;;20.52;54.43;95501.38;4352151;32;20311;-61
2023/06/26 01:20:01;;;;;;;2.33;2.00;;;;;;;20.57;54.74;95499.19;4353229;32;20185;-61
2023/06/26 01:23:04;;;;;;;1.67;1.57;;;;;;;20.46;53.93;95498.16;4337936;32;20228;-61
2023/06/26 01:25:52;;;;;;;2.23;1.40;;;;;;;20.41;53.78;95500.34;4372600;32;20188;-61
2023/06/26 01:28:19;;;;;;;1.70;1.70;;;;;;;20.39;54.14;95500.69;4357025;32;20228;-61
2023/06/26 01:30:47;;;;;;;1.40;1.40;;;;;;;20.32;54.01;95500.53;4365957;32;20218;-61
2023/06/26 01:33:15;;;;;;;1.53;1.53;;;;;;;20.32;54.35;95497.81;4350082;32;20192;-60
2023/06/26 01:35:44;;;;;;;1.40;1.40;;;;;;;20.38;54.99;95499.13;4363128;32;20177;-60
2023/06/26 01:38:16;;;;;;;1.40;1.40;;;;;;;20.31;54.35;95507.03;4362001;32;20240;-61
2023/06/26 01:40:58;;;;;;;1.57;1.57;;;;;;;20.35;54.82;95497.13;4368419;32;20228;-61
2023/06/26 01:43:55;;;;;;;1.93;1.93;;;;;;;20.30;54.24;95494.69;4368266;32;20204;-61
2023/06/26 01:46:41;;;;;;;3.50;1.93;;;;;;;20.42;54.80;95494.59;4372309;32;20184;-61
2023/06/26 01:49:34;;;;;;;1.20;1.20;;;;;;;20.30;54.29;95493.91;4363337;32;20299;-61
2023/06/26 01:52:38;;;;;;;2.73;2.50;;;;;;;20.41;54.89;95495.72;4352736;32;20220;-61
2023/06/26 01:55:46;;;;;;;1.70;1.60;;;;;;;20.48;54.91;95492.44;4368168;32;20192;-61
2023/06/26 01:58:16;;;;;;;1.30;1.30;;;;;;;20.54;54.55;95483.72;4363960;32;20184;-60
2023/06/26 02:00:42;;;;;;;1.03;1.03;;;;;;;20.43;55.06;95488.09;4355221;32;20233;-61
2023/06/26 02:03:10;;;;;;;1.60;1.50;;;;;;;20.38;54.37;95485.66;4360246;32;20211;-61
2023/06/26 02:05:38;;;;;;;2.07;1.97;;;;;;;20.36;54.93;95482.53;4360248;32;20180;-61
2023/06/26 02:08:33;;;;;;;2.43;1.63;;;;;;;20.25;54.72;95487.66;4362852;32;20227;-61
2023/06/26 02:10:59;;;;;;;4.30;1.87;;;;;;;20.36;55.80;95497.91;4368115;32;20236;-61
2023/06/26 02:13:26;;;;;;;5.13;2.27;;;;;;;20.41;55.07;95497.66;4350295;32;20200;-61
2023/06/26 02:15:55;;;;;;;1.77;1.67;;;;;;;20.45;55.53;95487.72;4333541;32;20308;-61
2023/06/26 02:18:23;;;;;;;1.40;1.30;;;;;;;20.42;54.92;95497.31;4336484;32;20246;-61
2023/06/26 02:20:52;;;;;;;2.07;1.97;;;;;;;20.38;55.08;95496.44;4355947;32;20194;-61
2023/06/26 02:23:17;;;;;;;4.07;2.60;;;;;;;20.37;55.50;95499.50;4366011;32;20197;-61
2023/06/26 02:25:43;;;;;;;4.13;2.23;;;;;;;20.37;55.65;95497.56;4375155;32;20264;-60
2023/06/26 02:28:09;;;;;;;2.33;2.23;;;;;;;20.23;55.91;95486.44;4370244;32;20198;-61
2023/06/26 02:30:36;;;;;;;1.73;1.67;;;;;;;20.28;55.74;95496.19;4373225;32;20256;-61
2023/06/26 02:33:02;;;;;;;1.83;1.77;;;;;;;20.22;55.59;95495.66;4364595;32;20260;-61
2023/06/26 02:35:32;;;;;;;2.23;2.13;;;;;;;20.20;55.86;95495.22;4358093;32;20192;-61
2023/06/26 02:38:01;;;;;;;1.53;1.43;;;;;;;20.14;55.89;95502.03;4348938;32;20219;-61
2023/06/26 02:40:27;;;;;;;2.03;1.93;;;;;;;20.20;56.56;95503.31;4350981;32;20208;-61
2023/06/26 02:42:54;;;;;;;1.83;1.73;;;;;;;20.25;56.65;95500.34;4360511;32;20207;-61
2023/06/26 02:45:19;;;;;;;1.63;1.53;;;;;;;20.21;56.47;95497.56;4364437;32;20257;-61
2023/06/26 02:47:45;;;;;;;2.00;1.90;;;;;;;19.99;57.13;95498.19;4360191;32;20263;-61
2023/06/26 02:50:13;;;;;;;3.30;2.43;;;;;;;20.10;57.01;95498.47;4366415;32;20188;-60
2023/06/26 02:52:40;;;;;;;2.27;2.17;;;;;;;20.13;56.64;95495.87;4353911;32;20188;-61
2023/06/26 02:55:09;;;;;;;1.70;1.63;;;;;;;20.19;56.73;95491.75;4313025;32;20280;-61
2023/06/26 02:57:35;;;;;;;2.80;2.60;;;;;;;20.10;56.53;95495.78;4333930;32;20295;-61
2023/06/26 03:00:01;;;;;;;1.60;1.60;;;;;;;19.92;56.92;95498.06;4361024;32;20280;-61
2023/06/26 03:02:28;;;;;;;1.87;1.77;;;;;;;20.18;58.65;95497.47;4384322;32;20244;-61
2023/06/26 03:04:55;;;;;;;1.73;1.73;;;;;;;20.19;56.80;95499.06;4370312;32;20236;-61
2023/06/26 03:07:20;;;;;;;1.63;1.60;;;;;;;20.15;56.76;95493.59;4356855;32;20266;-61
2023/06/26 03:09:46;;;;;;;1.90;1.80;;;;;;;20.09;56.53;95499.59;4365010;32;20188;-60
2023/06/26 03:12:12;;;;;;;7.33;2.47;;;;;;;20.04;56.85;95499.84;4349985;32;20189;-60
2023/06/26 03:14:38;;;;;;;2.30;2.20;;;;;;;20.19;57.07;95501.75;4371347;32;20290;-61
2023/06/26 03:17:07;;;;;;;1.90;1.80;;;;;;;20.30;57.50;95496.63;4375990;32;20263;-61
2023/06/26 03:19:33;;;;;;;1.43;1.43;;;;;;;20.28;57.82;95486.19;4337425;32;20257;-61
2023/06/26 03:22:01;;;;;;;1.93;1.83;;;;;;;20.24;57.67;95488.00;4331492;32;20204;-61
2023/06/26 03:24:30;;;;;;;2.53;2.03;;;;;;;20.35;58.38;95486.34;4385924;32;20180;-61
2023/06/26 03:26:57;;;;;;;1.67;1.63;;;;;;;20.10;56.62;95495.78;4333396;32;20180;-61
2023/06/26 03:29:23;;;;;;;1.80;1.73;;;;;;;20.15;56.70;95492.81;4357369;32;20196;-61
2023/06/26 03:31:50;;;;;;;1.37;1.37;;;;;;;20.14;58.12;95493.94;4377781;32;20211;-61
2023/06/26 03:34:17;;;;;;;2.13;2.03;;;;;;;20.02;56.88;95484.03;4388941;32;20188;-60
2023/06/26 03:36:43;;;;;;;1.50;1.40;;;;;;;20.13;56.93;95482.38;4375074;32;20198;-61
2023/06/26 03:39:12;;;;;;;2.77;2.60;;;;;;;20.04;56.84;95489.87;4371849;32;20267;-61
2023/06/26 03:41:41;;;;;;;1.83;1.83;;;;;;;19.94;57.07;95489.63;4373471;32;20207;-61
2023/06/26 03:44:07;;;;;;;1.67;1.67;;;;;;;19.79;57.58;95502.72;4365356;32;20202;-61
2023/06/26 03:46:34;;;;;;;1.73;1.63;;;;;;;19.77;57.52;95498.81;4387509;32;20262;-61
2023/06/26 03:49:01;;;;;;;1.53;1.43;;;;;;;19.76;57.92;95495.34;4386490;32;20248;-61
2023/06/26 03:51:27;;;;;;;2.00;1.83;;;;;;;19.85;57.58;95495.97;4388974;32;20216;-61
2023/06/26 03:53:54;;;;;;;3.43;2.70;;;;;;;19.87;58.10;95493.69;4356378;32;20211;-61
2023/06/26 03:56:21;;;;;;;2.17;2.07;;;;;;;19.77;57.65;95496.13;4379225;32;20197;-61
2023/06/26 03:58:48;;;;;;;9.33;2.03;;;;;;;19.96;57.97;95493.50;4346675;32;20219;-60
2023/06/26 04:01:14;;;;;;;1.83;1.77;;;;;;;19.84;57.51;95497.09;4339334;32;20211;-60
2023/06/26 04:03:40;;;;;;;1.90;1.90;;;;;;;19.92;58.30;95487.28;4361018;32;20193;-61
2023/06/26 04:06:07;;;;;;;2.07;1.97;;;;;;;20.00;57.57;95496.28;4336948;32;20189;-61
2023/06/26 04:08:33;;;;;;;2.77;2.60;;;;;;;19.86;57.70;95494.84;4344457;32;20249;-61
2023/06/26 04:11:03;;;;;;;1.83;1.73;;;;;;;19.72;58.16;95491.03;4361523;32;20193;-61
2023/06/26 04:13:30;;;;;;;1.50;1.50;;;;;;;19.87;57.76;95499.09;4379307;32;20238;-61
2023/06/26 04:15:56;;;;;;;2.53;2.43;;;;;;;19.89;58.59;95493.34;4378982;32;20188;-61
2023/06/26 04:18:22;;;;;;;2.13;2.03;;;;;;;19.92;57.80;95500.75;4360780;32;20256;-61
2023/06/26 04:21:27;;;;;;;1.80;1.23;;;;;;;20.02;57.72;95494.81;4357012;32;20238;-61
2023/06/26 04:23:53;;;;;;;1.90;1.80;;;;;;;19.89;57.66;95488.75;4362356;32;20196;-61
2023/06/26 04:26:19;;;;;;;1.80;1.70;;;;;;;19.91;58.71;95493.78;4369653;32;20192;-61
2023/06/26 04:28:47;;;;;;;1.90;1.80;;;;;;;19.96;58.44;95496.19;4346225;32;20228;-61
2023/06/26 04:31:12;;;;;;;1.90;1.90;;;;;;;19.87;57.90;95496.41;4374633;32;20196;-60
2023/06/26 04:33:39;;;;;;;1.33;1.13;;;;;;;19.94;58.20;95497.72;4379016;32;20196;-61
2023/06/26 04:36:28;;;;;;;1.60;1.60;;;;;;;19.77;58.26;95502.28;4383260;32;20249;-61
2023/06/26 04:38:55;;;;;;;2.53;2.33;;;;;;;19.84;58.64;95502.47;4372150;32;20214;-61
2023/06/26 04:41:22;;;;;;;2.53;2.33;;;;;;;19.85;58.26;95503.25;4362303;32;20185;-61
2023/06/26 04:43:49;;;;;;;1.33;1.33;;;;;;;19.84;58.33;95502.47;4345958;32;20231;-61
2023/06/26 04:46:14;;;;;;;2.03;1.93;;;;;;;19.75;58.39;95501.84;4359341;32;20180;-61
2023/06/26 04:48:44;;;;;;;4.90;2.33;;;;;;;20.00;58.55;95497.06;4351857;32;20193;-61
2023/06/26 04:51:15;;;;;;;2.00;1.90;;;;;;;20.06;58.79;95505.69;4349169;32;20256;-61
2023/06/26 04:53:41;;;;;;;4.83;2.30;;;;;;;20.10;58.42;95496.56;4334854;32;20238;-58
2023/06/26 04:56:07;;;;;;;1.80;1.70;;;;;;;20.09;58.15;95499.59;4363071;32;20177;-61
2023/06/26 04:58:34;;;;;;;6.10;2.37;;;;;;;19.95;58.42;95499.28;4349381;32;20213;-63
2023/06/26 05:01:04;;;;;;;1.30;1.30;;;;;;;19.90;58.33;95501.09;4336919;32;20216;-61
2023/06/26 05:03:38;;;;;;;2.63;2.37;;;;;;;19.95;58.44;95499.28;4361241;32;20271;-61
2023/06/26 05:06:04;;;;;;;2.00;1.90;;;;;;;20.05;58.42;95496.03;4345762;32;20196;-61
2023/06/26 05:08:31;;;;;;;2.40;2.30;;;;;;;20.04;58.28;95499.84;4345875;32;20202;-61
2023/06/26 05:11:00;;;;;;;2.50;1.87;;;;;;;20.22;58.73;95503.75;4331687;32;20189;-61
2023/06/26 05:13:46;;;;;;;2.80;2.13;;;;;;;20.06;58.31;95500.28;4363071;32;20227;-60
2023/06/26 05:16:14;;;;;;;2.13;2.03;;;;;;;20.26;58.33;95499.22;4369281;32;20189;-60
2023/06/26 05:18:40;;;;;;;1.27;1.27;;;;;;;20.13;59.08;95497.78;4344727;32;20263;-61
2023/06/26 05:21:07;;;;;;;3.57;1.93;;;;;;;20.18;58.74;95502.88;4353685;32;20243;-61
2023/06/26 05:23:36;;;;;;;2.87;2.67;;;;;;;20.19;58.82;95504.44;4359142;32;22404;-61
2023/06/26 05:26:04;;;;;;;1.43;1.43;;;;;;;20.35;59.02;95496.34;4373590;32;20291;-61
2023/06/26 05:28:31;;;;;;;1.70;1.70;;;;;;;20.33;59.34;95507.47;4376121;32;20192;-61
2023/06/26 05:31:17;;;;;;;1.87;1.87;;;;;;;20.30;58.46;95500.09;4339922;32;20188;-60
2023/06/26 05:34:09;;;;;;;2.10;2.00;;;;;;;20.26;60.28;95504.59;4363358;32;20185;-60
2023/06/26 05:36:38;;;;;;;1.13;1.13;;;;;;;20.26;60.41;95496.53;4351406;32;20313;-61
2023/06/26 05:39:04;;;;;;;2.47;2.37;;;;;;;20.30;60.54;95494.69;4340974;32;20287;-61
2023/06/26 05:41:31;;;;;;;1.67;1.57;;;;;;;20.29;60.70;95498.53;4357383;32;20220;-61
2023/06/26 05:43:58;;;;;;;1.60;1.50;;;;;;;20.37;60.76;95499.50;4372083;32;20223;-61
2023/06/26 05:46:25;;;;;;;3.13;2.83;;;;;;;20.44;60.55;95500.44;4359527;32;20180;-61
2023/06/26 05:48:52;;;;;;;2.07;1.97;;;;;;;20.44;60.35;95499.66;4350576;32;20241;-61
2023/06/26 05:51:19;;;;;;;1.80;1.70;;;;;;;20.53;60.85;95501.03;4361243;32;20239;-61
2023/06/26 05:53:46;;;;;;;1.43;1.43;;;;;;;20.56;61.51;95503.03;4372548;32;20233;-61
2023/06/26 05:56:18;;;;;;;1.93;1.83;;;;;;;20.71;59.99;95504.09;4385852;32;20212;-60
2023/06/26 05:58:44;;;;;;;2.63;2.43;;;;;;;20.72;59.05;95500.25;4333357;32;20203;-61
2023/06/26 06:01:10;;;;;;;1.20;1.20;;;;;;;20.78;58.56;95506.16;4352535;32;20189;-61
2023/06/26 06:03:37;;;;;;;1.70;1.70;;;;;;;20.88;58.63;95513.69;4338689;32;20188;-61
2023/06/26 06:06:05;;;;;;;1.70;1.70;;;;;;;20.94;59.04;95506.88;4375687;32;20234;-61
2023/06/26 06:08:30;;;;;;;1.87;1.87;;;;;;;21.01;59.79;95507.00;4363111;32;20189;-61
2023/06/26 06:10:57;;;;;;;2.10;2.00;;;;;;;21.04;59.04;95503.59;4364902;32;20188;-61
2023/06/26 06:13:24;;;;;;;1.93;1.83;;;;;;;21.14;59.24;95500.34;4343067;32;20252;-61
2023/06/26 06:15:50;;;;;;;1.67;1.57;;;;;;;21.22;58.80;95495.87;4361271;32;20206;-61
2023/06/26 06:18:17;;;;;;;2.37;2.17;;;;;;;21.30;58.01;95497.59;4364678;32;20188;-60
2023/06/26 06:20:44;;;;;;;1.30;1.30;;;;;;;21.31;58.46;95493.75;4357216;32;20268;-61
2023/06/26 06:23:13;;;;;;;9.60;5.13;;;;;;;21.41;57.84;95490.44;4342060;32;20208;-61
2023/06/26 06:25:43;;;;;;;2.60;2.43;;;;;;;21.59;60.70;95496.19;4357410;32;20210;-61
2023/06/26 06:28:08;;;;;;;2.90;2.70;;;;;;;21.73;59.45;95493.72;4359336;32;20200;-61
2023/06/26 06:30:34;;;;;;;3.07;2.83;;;;;;;21.87;58.43;95501.28;4349449;32;20195;-61
2023/06/26 06:33:01;;;;;;;2.87;2.53;;;;;;;22.00;57.81;95494.59;4357547;32;20236;-62
2023/06/26 06:35:28;;;;;;;3.17;2.13;;;;;;;22.04;57.33;95494.63;4332849;32;20211;-61
2023/06/26 06:37:54;;;;;;;2.67;2.20;;;;;;;22.15;56.66;95498.28;4372283;32;20219;-61
2023/06/26 06:40:22;;;;;;;4.43;3.03;;;;;;;22.23;56.30;95495.34;4324896;32;20215;-61
2023/06/26 06:42:48;;;;;;;2.87;2.67;;;;;;;22.27;56.56;95500.78;4353068;32;20224;-61
2023/06/26 06:45:14;;;;;;;2.57;2.37;;;;;;;22.37;55.92;95500.19;4363986;32;20203;-61
2023/06/26 06:47:40;;;;;;;8.27;3.10;;;;;;;22.38;55.56;95501.72;4368930;32;20189;-62
2023/06/26 06:50:15;;;;;;;1.83;1.70;;;;;;;22.40;55.47;95494.03;4346972;32;20252;-61
2023/06/26 06:52:44;;;;;;;2.70;2.50;;;;;;;22.48;55.18;95506.50;4359422;32;20219;-61
2023/06/26 06:55:11;;;;;;;7.70;2.37;;;;;;;22.45;54.29;95499.13;4351177;32;20267;-61
2023/06/26 06:57:42;;;;;;;2.17;1.97;;;;;;;22.48;54.94;95501.09;4365930;32;20197;-61
2023/06/26 07:00:17;;;;;;;2.37;2.17;;;;;;;22.57;54.42;95498.13;4361609;32;20197;-61
2023/06/26 07:02:44;;;;;;;5.60;2.47;;;;;;;22.55;54.36;95495.00;4317166;32;20194;-59
2023/06/26 07:05:10;;;;;;;2.10;2.00;;;;;;;22.56;53.71;95496.56;4358518;32;20258;-62
2023/06/26 07:07:39;;;;;;;4.77;2.30;;;;;;;22.58;53.61;95495.06;4339955;32;20181;-61
2023/06/26 07:10:28;;;;;;;1.63;1.53;;;;;;;22.62;53.34;95495.91;4366988;32;20270;-61
2023/06/26 07:12:55;;;;;;;1.73;1.63;;;;;;;22.71;53.31;95498.31;4345580;32;20273;-61
2023/06/26 07:15:21;;;;;;;2.40;2.20;;;;;;;22.78;53.08;95489.56;4352650;32;20185;-61
2023/06/26 07:17:47;;;;;;;2.40;2.30;;;;;;;22.84;52.96;95486.16;4324142;32;20189;-60
2023/06/26 07:20:17;;;;;;;1.23;1.23;;;;;;;22.84;52.85;95490.81;4322205;32;20185;-60
2023/06/26 07:22:48;;;;;;;1.10;1.10;;;;;;;22.87;52.16;95490.81;4299264;32;20308;-60
2023/06/26 07:25:13;;;;;;;1.63;1.53;;;;;;;22.89;52.71;95488.53;4340814;32;20193;-61
2023/06/26 07:27:41;;;;;;;1.43;1.33;;;;;;;22.94;52.46;95490.13;4315531;32;20237;-61
2023/06/26 07:30:11;;;;;;;0.90;0.90;;;;;;;22.88;52.76;95491.59;4345759;32;20207;-61
2023/06/26 07:32:38;;;;;;;1.67;1.50;;;;;;;22.96;52.62;95483.22;4361344;32;20246;-62
2023/06/26 07:35:06;;;;;;;2.83;2.17;;;;;;;22.94;52.86;95482.81;4342004;32;20311;-61
2023/06/26 07:37:33;;;;;;;1.33;1.33;;;;;;;22.96;53.22;95488.63;4349322;32;20216;-61
2023/06/26 07:40:01;;;;;;;2.53;2.33;;;;;;;23.06;52.91;95491.84;4323668;32;20258;-62
2023/06/26 07:42:30;;;;;;;1.67;1.67;;;;;;;23.12;53.22;95485.72;4359143;32;20193;-62
2023/06/26 07:44:57;;;;;;;1.47;1.47;;;;;;;23.16;53.11;95489.25;4347644;32;20243;-61
2023/06/26 07:47:25;;;;;;;1.30;1.30;;;;;;;23.13;53.52;95494.63;4301055;32;20189;-62
2023/06/26 07:49:54;;;;;;;1.17;1.17;;;;;;;23.05;53.95;95485.66;4343333;32;20204;-61
2023/06/26 07:52:20;;;;;;;1.30;1.30;;;;;;;23.01;54.07;95489.44;4323564;32;20228;-62
2023/06/26 07:54:45;;;;;;;1.03;1.03;;;;;;;23.03;53.75;95487.94;4350493;32;20180;-61
2023/06/26 07:57:12;;;;;;;1.47;1.47;;;;;;;23.04;53.93;95489.50;4367234;32;20193;-62
2023/06/26 07:59:38;;;;;;;4.67;2.97;;;;;;;23.12;53.88;95485.72;4378031;32;20196;-62
2023/06/26 08:02:05;;;;;;;1.97;1.87;;;;;;;23.08;54.19;95495.72;4348451;32;20203;-62
2023/06/26 08:04:35;;;;;;;0.70;0.70;;;;;;;23.15;53.95;95484.97;4288999;32;20291;-62
2023/06/26 08:07:09;;;;;;;1.10;1.10;;;;;;;23.24;53.90;95482.00;4323772;32;20197;-62
2023/06/26 08:09:35;;;;;;;2.67;1.60;;;;;;;23.29;53.80;95479.72;4325536;32;20298;-62
2023/06/26 08:12:02;;;;;;;1.07;1.07;;;;;;;23.35;53.72;95485.56;4335552;32;20192;-62
2023/06/26 08:14:30;;;;;;;1.30;1.20;;;;;;;23.22;54.00;95482.34;4289990;32;20270;-62
2023/06/26 08:16:57;;;;;;;1.17;1.17;;;;;;;23.47;52.91;95479.13;4355654;32;20185;-62
2023/06/26 08:19:23;;;;;;;1.43;1.37;;;;;;;23.51;53.33;95475.28;4340772;32;20243;-62
2023/06/26 08:21:48;;;;;;;1.83;1.73;;;;;;;23.55;52.93;95481.56;4369037;32;20244;-62
2023/06/26 08:24:17;;;;;;;1.63;1.53;;;;;;;23.39;53.66;95478.28;4358092;32;20203;-61
2023/06/26 08:26:45;;;;;;;1.90;1.80;;;;;;;23.54;53.19;95490.84;4351306;32;20197;-62
2023/06/26 08:29:11;;;;;;;1.73;1.63;;;;;;;23.42;53.87;95482.94;4351923;32;20193;-63
2023/06/26 08:31:38;;;;;;;1.20;1.20;;;;;;;23.40;53.76;95482.53;4353486;32;20188;-62
2023/06/26 08:34:07;;;;;;;2.13;2.03;;;;;;;23.41;53.95;95475.97;4321492;32;20205;-62
2023/06/26 08:36:38;;;;;;;2.50;2.30;;;;;;;23.51;53.82;95485.34;4316913;32;20285;-62
2023/06/26 08:39:06;;;;;;;1.70;1.57;;;;;;;23.52;53.83;95486.94;4359744;32;20200;-62
2023/06/26 08:41:42;;;;;;;1.30;1.30;;;;;;;23.43;54.32;95473.69;4373071;32;20189;-62
2023/06/26 08:44:10;;;;;;;1.40;1.37;;;;;;;23.56;53.86;95477.69;4347298;32;20187;-62
2023/06/26 08:46:38;;;;;;;1.10;1.10;;;;;;;23.47;54.09;95476.44;4329699;32;20312;-62
2023/06/26 08:49:47;;;;;;;1.27;1.17;;;;;;;23.40;54.19;95479.84;4313043;32;20289;-62
2023/06/26 08:52:42;;;;;;;1.47;1.37;;;;;;;23.53;53.46;95473.03;4331898;32;20224;-61
2023/06/26 08:55:11;;;;;;;3.13;2.60;;;;;;;23.65;53.61;95477.41;4294280;32;20244;-62
2023/06/26 08:57:37;;;;;;;2.33;2.23;;;;;;;23.64;53.36;95473.13;4346060;32;20193;-62
2023/06/26 09:00:03;;;;;;;3.70;1.87;;;;;;;23.82;51.56;95474.06;4346016;32;20432;-62
2023/06/26 09:02:29;;;;;;;1.20;1.20;;;;;;;23.77;52.64;95466.28;4349285;32;20210;-62
2023/06/26 09:04:56;;;;;;;1.47;1.47;;;;;;;23.72;53.42;95469.31;4338425;32;20197;-61
2023/06/26 09:07:25;;;;;;;0.80;0.80;;;;;;;23.74;53.24;95463.53;4307856;32;20194;-61
2023/06/26 09:09:52;;;;;;;1.00;1.00;;;;;;;23.89;52.28;95468.72;4367669;32;20269;-62
2023/06/26 09:12:23;;;;;;;1.67;1.67;;;;;;;24.32;49.55;95458.19;4348120;32;20214;-62
2023/06/26 09:15:03;;;;;;;2.87;1.57;;;;;;;24.43;50.08;95459.03;4331884;32;20207;-62
2023/06/26 09:17:39;;;;;;;2.37;2.27;;;;;;;24.47;49.82;95459.06;4325352;32;20288;-62
2023/06/26 09:20:07;;;;;;;1.10;1.10;;;;;;;24.14;51.72;95454.53;4322848;32;20214;-62
2023/06/26 09:22:36;;;;;;;1.60;1.50;;;;;;;23.98;51.64;95449.41;4333023;32;20275;-62
2023/06/26 09:25:05;;;;;;;1.30;1.20;;;;;;;23.94;51.67;95449.38;4270072;32;20197;-62
2023/06/26 09:27:33;;;;;;;2.03;1.83;;;;;;;24.31;50.60;95445.81;4356212;32;20196;-62
2023/06/26 09:30:02;;;;;;;2.03;1.93;;;;;;;24.20;51.29;95447.62;4326369;32;20255;-62
2023/06/26 09:32:30;;;;;;;0.57;0.57;;;;;;;24.31;51.11;95440.38;4324451;32;20224;-62
2023/06/26 09:34:57;;;;;;;2.17;2.00;;;;;;;24.13;51.11;95447.56;4359316;32;20192;-62
2023/06/26 09:37:24;;;;;;;1.53;1.53;;;;;;;24.10;51.56;95451.06;4320113;32;20224;-62
2023/06/26 09:39:51;;;;;;;1.33;1.33;;;;;;;24.31;50.74;95446.59;4337595;32;20264;-62
2023/06/26 09:42:23;;;;;;;0.77;0.77;;;;;;;23.97;52.08;95445.13;4335536;32;20204;-61
2023/06/26 09:44:51;;;;;;;1.67;1.57;;;;;;;24.25;49.79;95436.47;4363447;32;20236;-62
2023/06/26 09:47:23;;;;;;;2.10;2.00;;;;;;;24.56;50.28;95440.50;4329323;32;20189;-61
2023/06/26 09:49:52;;;;;;;1.30;1.30;;;;;;;24.39;50.68;95436.53;4316711;32;20255;-62
2023/06/26 09:52:25;;;;;;;1.47;1.47;;;;;;;24.43;50.36;95433.84;4333671;32;20263;-61
2023/06/26 09:55:09;;;;;;;1.80;1.10;;;;;;;24.28;49.01;95439.19;4343894;32;20192;-62
2023/06/26 09:57:38;;;;;;;1.10;1.10;;;;;;;24.03;51.23;95434.72;4354490;32;20201;-62
2023/06/26 10:00:04;;;;;;;1.47;1.37;;;;;;;24.07;51.05;95425.47;4322985;32;20200;-62
2023/06/26 10:02:31;;;;;;;1.57;1.57;;;;;;;24.11;50.56;95423.53;4349173;32;20215;-62
2023/06/26 10:04:59;;;;;;;1.90;1.80;;;;;;;24.38;49.70;95428.78;4336171;32;20261;-64
2023/06/26 10:07:33;;;;;;;1.03;1.03;;;;;;;24.37;49.46;95427.22;4337233;32;20194;-62
2023/06/26 10:10:03;;;;;;;1.23;1.23;;;;;;;24.32;49.07;95425.63;4338039;32;20201;-62
2023/06/26 10:12:31;;;;;;;1.17;1.17;;;;;;;24.35;48.89;95416.75;4354668;32;20216;-62
2023/06/26 10:15:00;;;;;;;1.27;1.27;;;;;;;24.47;47.28;95423.81;4343483;32;20224;-64
2023/06/26 10:17:32;;;;;;;1.13;1.13;;;;;;;24.57;47.24;95409.50;4326406;32;20264;-62
2023/06/26 10:20:03;;;;;;;1.47;1.37;;;;;;;24.87;45.40;95417.38;4328733;32;20193;-62
2023/06/26 10:22:36;;;;;;;0.50;0.50;;;;;;;24.88;46.73;95413.50;4344332;32;20273;-62
2023/06/26 10:25:07;;;;;;;1.00;1.00;;;;;;;24.61;47.40;95413.78;4351501;32;20304;-63
2023/06/26 10:27:41;;;;;;;0.33;0.33;;;;;;;24.39;47.80;95420.25;4303536;32;20185;-63
2023/06/26 10:30:14;;;;;;;1.47;1.37;;;;;;;24.29;48.00;95421.00;4349289;32;20193;-62
2023/06/26 10:32:41;;;;;;;0.93;0.93;;;;;;;24.20;48.26;95418.56;4325988;32;20185;-62
2023/06/26 10:35:13;;;;;;;1.23;1.23;;;;;;;24.33;47.24;95411.69;4327827;32;20318;-62
2023/06/26 10:38:02;;;;;;;0.67;0.67;;;;;;;24.36;47.30;95404.75;4338646;32;20230;-62
2023/06/26 10:40:39;;;;;;;1.23;1.23;;;;;;;24.60;45.70;95409.50;4311133;32;20264;-62
2023/06/26 10:43:08;;;;;;;1.27;1.00;;;;;;;24.51;46.82;95403.69;4290872;32;20281;-63
2023/06/26 10:45:52;;;;;;;1.00;1.00;;;;;;;24.53;46.58;95409.47;4322779;32;20189;-62
2023/06/26 10:48:22;;;;;;;1.00;1.00;;;;;;;24.58;45.20;95411.81;4328578;32;20196;-62
2023/06/26 10:50:49;;;;;;;1.40;0.87;;;;;;;24.41;46.95;95406.31;4368979;32;20199;-62
2023/06/26 10:53:25;;;;;;;1.67;1.57;;;;;;;24.48;47.11;95403.66;4354342;32;20242;-60
2023/06/26 10:55:59;;;;;;;0.60;0.60;;;;;;;24.72;46.25;95408.41;4365246;32;20212;-62
2023/06/26 10:58:39;;;;;;;0.77;0.77;;;;;;;24.98;45.78;95412.78;4345825;32;20193;-63
2023/06/26 11:01:26;;;;;;;1.53;1.53;;;;;;;24.51;46.66;95395.53;4302237;32;20235;-62
2023/06/26 11:04:06;;;;;;;2.90;1.30;;;;;;;24.93;43.44;95400.34;4345567;32;20184;-62
2023/06/26 11:06:34;;;;;;;1.30;1.20;;;;;;;24.62;46.17;95401.78;4345042;32;20188;-62
2023/06/26 11:09:12;;;;;;;0.97;0.97;;;;;;;24.64;45.46;95398.69;4334107;32;20197;-62
2023/06/26 11:12:04;;;;;;;1.13;1.13;;;;;;;24.82;45.26;95396.03;4334008;32;20272;-62
2023/06/26 11:14:32;;;;;;;2.50;1.80;;;;;;;24.53;46.22;95404.03;4335744;32;20193;-62
2023/06/26 11:16:59;;;;;;;1.10;1.00;;;;;;;24.78;45.69;95406.09;4316703;32;20180;-62
2023/06/26 11:19:27;;;;;;;1.00;0.90;;;;;;;24.55;46.38;95395.53;4349893;32;20217;-62
2023/06/26 11:21:54;;;;;;;0.87;0.87;;;;;;;24.76;46.09;95395.63;4347564;32;20200;-62
2023/06/26 11:24:20;;;;;;;1.00;1.00;;;;;;;24.97;45.67;95394.94;4370091;32;20291;-62
2023/06/26 11:26:46;;;;;;;1.07;1.07;;;;;;;24.98;45.72;95393.78;4321486;32;20181;-62
2023/06/26 11:29:13;;;;;;;1.30;1.30;;;;;;;25.24;44.89;95398.88;4339230;32;20203;-62
2023/06/26 11:31:41;;;;;;;1.20;1.20;;;;;;;24.73;46.29;95392.91;4340702;32;20189;-62
2023/06/26 11:34:11;;;;;;;1.23;1.13;;;;;;;24.92;45.57;95395.31;4352730;32;20392;-63
2023/06/26 11:36:42;;;;;;;1.53;1.53;;;;;;;25.00;44.98;95394.16;4304691;32;20191;-62
2023/06/26 11:39:11;;;;;;;1.03;1.03;;;;;;;24.89;45.56;95393.34;4307216;32;20237;-62
2023/06/26 11:41:40;;;;;;;3.13;2.27;;;;;;;24.89;45.05;95383.25;4329148;32;20257;-62
2023/06/26 11:44:11;;;;;;;0.63;0.63;;;;;;;25.07;45.11;95388.00;4278714;32;20281;-63
2023/06/26 11:46:38;;;;;;;1.77;1.73;;;;;;;25.05;45.52;95393.81;4357346;32;20232;-62